LNG Ondo — ZCDT5 — position and weather

sailwx.info

Track history (hours):
 
Tides and Currents Weather Stations Pressure Air Temp Water Temp Dewpoint Dewpoint Depression Visibility Wind Speed Wind Dir Waves Ship Positions

LNG Ondo

Last reported at 2018-May-19 03:49 UTC. Time now 2018-May-24 00:36 UTC.
Position N 24°14' E 066°43'.

Length 288 m; draft 11.3 m.

MMSI: 310550000.

Date/timePositionNaut miles runAvg speedWind from/ knotsBaromVisibWave heightAir tempDewpointWater temp
2018-May-19 03:49N 24°14' E 066°43'617.1
2018-May-19 03:29N 24°10' E 066°38'917.3
2018-May-19 02:58N 24°05' E 066°30'11 6.9
2018-May-19 01:18N 24°14' E 066°37'2 6.1
2018-May-19 01:00N 24°12' E 066°38'2 0.3
2018-May-18 18:08N 24°14' E 066°39'217.4
2018-May-18 18:00N 24°12' E 066°37'917.3
2018-May-18 17:30N 24°06' E 066°30'  
2018-May-09 12:41S 30°02' E 033°15'617.5
2018-May-09 12:22S 30°06' E 033°11'617.5
2018-May-09 12:00S 30°11' E 033°07'1217.4
2018-May-09 11:20S 30°20' E 032°58'616.9
2018-May-09 11:00S 30°25' E 032°56'816.6
2018-May-09 10:30S 30°33' E 032°51'916.7
2018-May-09 09:57S 30°41' E 032°46'917.2
2018-May-09 09:25S 30°49' E 032°41'  
Track history (hours):
 
Tides and Currents Weather Stations Pressure Air Temp Water Temp Dewpoint Dewpoint Depression Visibility Wind Speed Wind Dir Waves Ship Positions

LNG Ondo

Last reported at 2018-May-19 03:49 UTC. Time now 2018-May-24 00:36 UTC.
Position N 24°14' E 066°43'.

Length 288 m; draft 11.3 m.

MMSI: 310550000.

Date/timePositionNaut miles runAvg speedWind from/ knotsBaromVisibWave heightAir tempDewpointWater temp
2018-May-19 03:49N 24°14' E 066°43'617.1
2018-May-19 03:29N 24°10' E 066°38'917.3
2018-May-19 02:58N 24°05' E 066°30'11 6.9
2018-May-19 01:18N 24°14' E 066°37'2 6.1
2018-May-19 01:00N 24°12' E 066°38'2 0.3
2018-May-18 18:08N 24°14' E 066°39'217.4
2018-May-18 18:00N 24°12' E 066°37'917.3
2018-May-18 17:30N 24°06' E 066°30'  
2018-May-09 12:41S 30°02' E 033°15'617.5
2018-May-09 12:22S 30°06' E 033°11'617.5
2018-May-09 12:00S 30°11' E 033°07'1217.4
2018-May-09 11:20S 30°20' E 032°58'616.9
2018-May-09 11:00S 30°25' E 032°56'816.6
2018-May-09 10:30S 30°33' E 032°51'916.7
2018-May-09 09:57S 30°41' E 032°46'917.2
2018-May-09 09:25S 30°49' E 032°41'  

Dump ship's entire track history